createdAt,value
2017-01-28T00:00:18.674Z,0
2017-01-28T00:01:26.765Z,0
2017-01-28T00:02:34.858Z,0
2017-01-28T00:03:42.938Z,0
2017-01-28T00:04:51.025Z,0
2017-01-28T00:05:59.121Z,0
2017-01-28T00:07:07.209Z,0
2017-01-28T00:08:15.294Z,0
2017-01-28T00:09:23.389Z,0
2017-01-28T00:10:31.478Z,0
2017-01-28T00:11:39.559Z,0
2017-01-28T00:12:47.664Z,0
2017-01-28T00:13:55.742Z,0
2017-01-28T00:15:03.831Z,0
2017-01-28T00:16:11.969Z,0
2017-01-28T00:17:20.004Z,0
2017-01-28T00:18:28.092Z,0
2017-01-28T00:19:36.177Z,0
2017-01-28T00:20:44.272Z,0
2017-01-28T00:21:52.357Z,0
2017-01-28T00:23:00.444Z,0
2017-01-28T00:24:08.527Z,0
2017-01-28T00:25:16.617Z,0
2017-01-28T00:26:24.706Z,0
2017-01-28T00:27:32.793Z,0
2017-01-28T00:28:40.884Z,0
2017-01-28T00:29:48.971Z,0
2017-01-28T00:30:57.055Z,0
2017-01-28T00:32:05.146Z,0
2017-01-28T00:33:13.236Z,0
2017-01-28T00:34:21.326Z,0
2017-01-28T00:35:29.414Z,0
2017-01-28T00:36:37.503Z,0
2017-01-28T00:37:45.589Z,0
2017-01-28T00:38:53.678Z,0
2017-01-28T00:40:02.250Z,0
2017-01-28T00:41:09.854Z,0
2017-01-28T00:42:17.942Z,0
2017-01-28T00:43:26.025Z,0
2017-01-28T00:44:34.118Z,0
2017-01-28T00:45:42.212Z,0
2017-01-28T00:46:50.375Z,0
2017-01-28T00:47:58.385Z,0
2017-01-28T00:49:06.487Z,0
2017-01-28T00:50:14.570Z,0
2017-01-28T00:51:22.663Z,0
2017-01-28T00:52:30.755Z,0
2017-01-28T00:53:38.839Z,0
2017-01-28T00:54:46.927Z,0
2017-01-28T00:55:55.018Z,0
2017-01-28T00:57:03.108Z,0
2017-01-28T00:58:11.192Z,0
2017-01-28T00:59:19.280Z,0
2017-01-28T01:00:27.370Z,0
2017-01-28T01:01:35.463Z,0
2017-01-28T01:02:43.546Z,0
2017-01-28T01:03:51.652Z,0
2017-01-28T01:04:59.723Z,0
2017-01-28T01:06:07.806Z,0
2017-01-28T01:07:15.892Z,0
2017-01-28T01:08:23.983Z,0
2017-01-28T01:09:32.072Z,0
2017-01-28T01:10:40.157Z,0
2017-01-28T01:11:48.247Z,0
2017-01-28T01:12:56.336Z,0
2017-01-28T01:14:04.424Z,0
2017-01-28T01:15:12.511Z,0
2017-01-28T01:16:20.600Z,0
2017-01-28T01:17:28.689Z,0
2017-01-28T01:18:36.771Z,0
2017-01-28T01:19:44.864Z,0
2017-01-28T01:20:52.962Z,0
2017-01-28T01:22:01.048Z,0
2017-01-28T01:23:09.137Z,0
2017-01-28T01:24:17.234Z,0
2017-01-28T01:25:25.324Z,0
2017-01-28T01:26:33.411Z,0
2017-01-28T01:27:41.497Z,0
2017-01-28T01:28:49.582Z,0
2017-01-28T01:29:57.672Z,0
2017-01-28T01:31:05.762Z,0
2017-01-28T01:32:13.862Z,0
2017-01-28T01:33:21.947Z,0
2017-01-28T01:34:30.036Z,0
2017-01-28T01:35:38.129Z,0
2017-01-28T01:36:46.216Z,0
2017-01-28T01:37:54.303Z,0
2017-01-28T01:39:02.396Z,0
2017-01-28T01:40:10.489Z,0
2017-01-28T01:41:18.581Z,0
2017-01-28T01:42:26.664Z,0
2017-01-28T01:43:34.759Z,0
2017-01-28T01:44:42.847Z,0
2017-01-28T01:45:50.937Z,0
2017-01-28T01:46:59.024Z,0
2017-01-28T01:48:07.117Z,0
2017-01-28T01:49:15.206Z,0
2017-01-28T01:50:23.292Z,0
2017-01-28T01:51:31.414Z,0
2017-01-28T01:52:39.473Z,0
2017-01-28T01:53:47.557Z,0
2017-01-28T01:54:55.651Z,0
2017-01-28T01:56:03.738Z,0
2017-01-28T01:57:11.828Z,0
2017-01-28T01:58:19.913Z,0
2017-01-28T01:59:32.499Z,0
2017-01-28T02:00:36.096Z,0
2017-01-28T02:01:44.189Z,0
2017-01-28T02:02:52.280Z,0
2017-01-28T02:04:00.367Z,0
2017-01-28T02:05:08.452Z,0
2017-01-28T02:06:16.539Z,0
2017-01-28T02:07:24.633Z,0
2017-01-28T02:08:32.728Z,0
2017-01-28T02:09:40.809Z,0
2017-01-28T02:10:48.903Z,0
2017-01-28T02:11:56.993Z,0
2017-01-28T02:13:05.088Z,0
2017-01-28T02:14:13.173Z,0
2017-01-28T02:15:21.265Z,0
2017-01-28T02:16:29.351Z,0
2017-01-28T02:17:37.439Z,0
2017-01-28T02:18:45.529Z,0
2017-01-28T02:19:53.620Z,0
2017-01-28T02:21:01.707Z,0
2017-01-28T02:22:09.794Z,0
2017-01-28T02:23:17.890Z,0
2017-01-28T02:24:25.980Z,0
2017-01-28T02:25:34.075Z,0
2017-01-28T02:26:42.165Z,0
2017-01-28T02:27:50.254Z,0
2017-01-28T02:28:58.341Z,0
2017-01-28T02:30:06.431Z,0
2017-01-28T02:31:14.583Z,0
2017-01-28T02:32:22.620Z,0
2017-01-28T02:33:30.705Z,0
2017-01-28T02:34:38.800Z,0
2017-01-28T02:35:46.888Z,0
2017-01-28T02:36:54.977Z,0
2017-01-28T02:38:03.077Z,0
2017-01-28T02:39:11.169Z,0
2017-01-28T02:40:19.256Z,0
2017-01-28T02:41:27.343Z,0
2017-01-28T02:42:35.443Z,0
2017-01-28T02:43:43.530Z,0
2017-01-28T02:44:51.618Z,0
2017-01-28T02:45:59.703Z,0
2017-01-28T02:47:07.798Z,0
2017-01-28T02:48:15.886Z,0
2017-01-28T02:49:23.977Z,0
2017-01-28T02:50:32.077Z,0
2017-01-28T02:51:40.166Z,0
2017-01-28T02:52:48.251Z,0
2017-01-28T02:53:56.346Z,0
2017-01-28T02:55:04.442Z,0
2017-01-28T02:56:12.524Z,0
2017-01-28T02:57:20.616Z,0
2017-01-28T02:58:28.797Z,0
2017-01-28T02:59:36.806Z,0
2017-01-28T03:00:44.902Z,0
2017-01-28T03:01:52.996Z,0
2017-01-28T03:03:01.089Z,0
2017-01-28T03:04:09.180Z,0
2017-01-28T03:05:17.265Z,0
2017-01-28T03:06:25.359Z,0
2017-01-28T03:07:33.454Z,0
2017-01-28T03:08:41.551Z,0
2017-01-28T03:09:49.648Z,0
2017-01-28T03:10:57.740Z,0
2017-01-28T03:12:05.830Z,0
2017-01-28T03:13:13.918Z,0
2017-01-28T03:14:22.013Z,0
2017-01-28T03:15:30.134Z,0
2017-01-28T03:16:38.193Z,0
2017-01-28T03:17:46.292Z,0
2017-01-28T03:18:54.379Z,0
2017-01-28T03:20:02.476Z,0
2017-01-28T03:21:10.569Z,0
2017-01-28T03:22:18.664Z,0
2017-01-28T03:23:26.751Z,0
2017-01-28T03:24:34.848Z,0
2017-01-28T03:25:42.937Z,0
2017-01-28T03:26:51.025Z,0
2017-01-28T03:27:59.118Z,0
2017-01-28T03:29:07.206Z,0
2017-01-28T03:30:15.298Z,0
2017-01-28T03:31:23.385Z,0
2017-01-28T03:32:31.475Z,0
2017-01-28T03:33:39.570Z,0
2017-01-28T03:34:47.655Z,0
2017-01-28T03:35:55.753Z,0
2017-01-28T03:37:03.842Z,0
2017-01-28T03:38:11.933Z,0
2017-01-28T03:39:20.025Z,0
2017-01-28T03:40:28.116Z,0
2017-01-28T03:41:36.212Z,0
2017-01-28T03:42:44.303Z,0
2017-01-28T03:43:52.390Z,0
2017-01-28T03:45:00.490Z,0
2017-01-28T03:46:08.575Z,0
2017-01-28T03:47:16.667Z,0
2017-01-28T03:48:24.754Z,0
2017-01-28T03:49:32.847Z,0
2017-01-28T03:50:40.938Z,0
2017-01-28T03:51:49.026Z,0
2017-01-28T03:52:57.113Z,0
2017-01-28T03:54:05.210Z,0
2017-01-28T03:55:13.297Z,0
2017-01-28T03:56:21.386Z,0
2017-01-28T03:57:29.482Z,0
2017-01-28T03:58:37.578Z,0
2017-01-28T03:59:45.661Z,0
2017-01-28T04:00:53.747Z,0
2017-01-28T04:02:01.842Z,0
2017-01-28T04:03:09.933Z,0
2017-01-28T04:04:18.019Z,0
2017-01-28T04:05:26.110Z,0
2017-01-28T04:06:34.197Z,0
2017-01-28T04:07:42.285Z,0
2017-01-28T04:08:50.377Z,0
2017-01-28T04:09:58.468Z,0
2017-01-28T04:11:06.564Z,0
2017-01-28T04:12:14.651Z,0
2017-01-28T04:13:22.747Z,0
2017-01-28T04:14:30.835Z,0
2017-01-28T04:15:38.929Z,0
2017-01-28T04:16:47.020Z,0
2017-01-28T04:17:55.111Z,0
2017-01-28T04:19:03.201Z,0
2017-01-28T04:20:11.291Z,0
2017-01-28T04:21:19.395Z,0
2017-01-28T04:22:27.494Z,0
2017-01-28T04:23:35.575Z,0
2017-01-28T04:24:43.665Z,0
2017-01-28T04:25:51.759Z,0
2017-01-28T04:26:59.851Z,0
2017-01-28T04:28:07.938Z,0
2017-01-28T04:29:16.033Z,0
2017-01-28T04:30:24.123Z,0
2017-01-28T04:31:32.213Z,0
2017-01-28T04:32:40.312Z,0
2017-01-28T04:33:48.405Z,0
2017-01-28T04:34:56.493Z,0
2017-01-28T04:36:04.585Z,0
2017-01-28T04:37:12.675Z,0
2017-01-28T04:38:20.770Z,0
2017-01-28T04:39:28.864Z,0
2017-01-28T04:40:37.018Z,0
2017-01-28T04:41:45.046Z,0
2017-01-28T04:42:53.135Z,0
2017-01-28T04:44:01.225Z,0
2017-01-28T04:45:09.316Z,0
2017-01-28T04:46:17.410Z,0
2017-01-28T04:47:25.501Z,0
2017-01-28T04:48:33.592Z,0
2017-01-28T04:49:41.687Z,0
2017-01-28T04:50:49.776Z,0
2017-01-28T04:51:57.866Z,0
2017-01-28T04:53:05.959Z,0
2017-01-28T04:54:14.047Z,0
2017-01-28T04:55:22.138Z,0
2017-01-28T04:56:30.230Z,0
2017-01-28T04:57:38.325Z,0
2017-01-28T04:58:46.415Z,0
2017-01-28T04:59:54.503Z,0
2017-01-28T05:01:02.595Z,0
2017-01-28T05:02:10.685Z,0
2017-01-28T05:03:18.786Z,0
2017-01-28T05:04:26.876Z,0
2017-01-28T05:05:34.978Z,0
2017-01-28T05:06:43.076Z,0
2017-01-28T05:07:51.156Z,0
2017-01-28T05:08:59.260Z,0
2017-01-28T05:10:07.407Z,0
2017-01-28T05:11:15.441Z,0
2017-01-28T05:12:23.543Z,0
2017-01-28T05:13:31.631Z,0
2017-01-28T05:14:39.720Z,0
2017-01-28T05:15:47.808Z,0
2017-01-28T05:16:55.908Z,0
2017-01-28T05:18:03.998Z,0
2017-01-28T05:19:12.086Z,0
2017-01-28T05:20:20.179Z,0
2017-01-28T05:21:28.270Z,0
2017-01-28T05:22:36.354Z,0
2017-01-28T05:23:44.445Z,0
2017-01-28T05:24:52.537Z,0
2017-01-28T05:26:00.627Z,0
2017-01-28T05:27:08.775Z,0
2017-01-28T05:28:16.817Z,0
2017-01-28T05:29:24.905Z,0
2017-01-28T05:30:32.992Z,0
2017-01-28T05:31:41.084Z,0
2017-01-28T05:32:49.179Z,0
2017-01-28T05:33:57.268Z,0
2017-01-28T05:35:05.356Z,0
2017-01-28T05:36:13.451Z,0
2017-01-28T05:37:21.548Z,0
2017-01-28T05:38:29.636Z,0
2017-01-28T05:39:37.725Z,0
2017-01-28T05:40:45.819Z,0
2017-01-28T05:41:53.908Z,0
2017-01-28T05:43:01.995Z,0
2017-01-28T05:44:10.089Z,0
2017-01-28T05:45:18.179Z,0
2017-01-28T05:46:26.269Z,0
2017-01-28T05:47:34.364Z,0
2017-01-28T05:48:42.452Z,0
2017-01-28T05:49:50.549Z,0
2017-01-28T05:50:58.641Z,0
2017-01-28T05:52:06.740Z,0
2017-01-28T05:53:14.836Z,0
2017-01-28T05:54:22.934Z,0
2017-01-28T05:55:31.025Z,0
2017-01-28T05:56:39.121Z,0
2017-01-28T05:57:47.210Z,0
2017-01-28T05:58:55.293Z,0
2017-01-28T06:00:03.391Z,0
2017-01-28T06:01:11.483Z,0
2017-01-28T06:02:19.575Z,0
2017-01-28T06:03:27.665Z,0
2017-01-28T06:04:35.757Z,0
2017-01-28T06:05:43.852Z,0
2017-01-28T06:06:51.939Z,0
2017-01-28T06:08:00.031Z,0
2017-01-28T06:09:08.117Z,0
2017-01-28T06:10:16.206Z,0
2017-01-28T06:11:24.299Z,0
2017-01-28T06:12:32.462Z,0
2017-01-28T06:13:40.483Z,0
2017-01-28T06:14:48.580Z,0
2017-01-28T06:15:56.692Z,0
2017-01-28T06:17:04.758Z,0
2017-01-28T06:18:12.848Z,0
2017-01-28T06:19:20.940Z,0
2017-01-28T06:20:29.032Z,0
2017-01-28T06:21:37.116Z,0
2017-01-28T06:22:45.213Z,0
2017-01-28T06:23:53.308Z,0
2017-01-28T06:25:01.390Z,0
2017-01-28T06:26:09.486Z,0
2017-01-28T06:27:17.577Z,0
2017-01-28T06:28:25.669Z,0
2017-01-28T06:29:33.756Z,0
2017-01-28T06:30:41.846Z,0
2017-01-28T06:31:49.942Z,0
2017-01-28T06:32:58.030Z,0
2017-01-28T06:34:06.118Z,0
2017-01-28T06:35:14.216Z,0
2017-01-28T06:36:22.310Z,0
2017-01-28T06:37:30.399Z,0
2017-01-28T06:38:38.489Z,0
2017-01-28T06:39:46.577Z,0
2017-01-28T06:40:54.672Z,0
2017-01-28T06:42:02.755Z,0
2017-01-28T06:43:10.849Z,0
2017-01-28T06:44:18.941Z,0
2017-01-28T06:45:27.032Z,0
2017-01-28T06:46:35.123Z,0
2017-01-28T06:47:43.219Z,0
2017-01-28T06:48:51.308Z,0
2017-01-28T06:49:59.395Z,4
2017-01-28T06:51:07.490Z,0
2017-01-28T06:52:15.579Z,0
2017-01-28T06:53:23.667Z,4
2017-01-28T06:54:31.756Z,0
2017-01-28T06:55:39.850Z,0
2017-01-28T06:56:47.939Z,0
2017-01-28T06:57:56.029Z,4
2017-01-28T06:59:04.126Z,4
2017-01-28T07:00:12.210Z,0
2017-01-28T07:01:20.299Z,0
2017-01-28T07:02:28.390Z,0
2017-01-28T07:03:36.477Z,0
2017-01-28T07:04:44.569Z,0
2017-01-28T07:05:52.655Z,0
2017-01-28T07:07:00.754Z,0
2017-01-28T07:08:08.845Z,4
2017-01-28T07:09:16.932Z,0
2017-01-28T07:10:25.029Z,4
2017-01-28T07:11:33.120Z,4
2017-01-28T07:12:41.212Z,4
2017-01-28T07:13:49.303Z,4
2017-01-28T07:14:57.394Z,4
2017-01-28T07:16:05.490Z,4
2017-01-28T07:17:13.581Z,8
2017-01-28T07:18:21.671Z,4
2017-01-28T07:19:29.759Z,8
2017-01-28T07:20:37.848Z,4
2017-01-28T07:21:45.985Z,8
2017-01-28T07:22:54.032Z,8
2017-01-28T07:24:02.120Z,8
2017-01-28T07:25:10.208Z,8
2017-01-28T07:26:18.301Z,8
2017-01-28T07:27:26.390Z,8
2017-01-28T07:28:34.480Z,8
2017-01-28T07:29:42.561Z,8
2017-01-28T07:30:50.656Z,8
2017-01-28T07:31:58.748Z,8
2017-01-28T07:33:06.841Z,8
2017-01-28T07:34:14.936Z,8
2017-01-28T07:35:23.023Z,8
2017-01-28T07:36:31.115Z,8
2017-01-28T07:37:39.199Z,8
2017-01-28T07:38:47.367Z,12
2017-01-28T07:39:55.394Z,12
2017-01-28T07:41:03.484Z,8
2017-01-28T07:42:11.573Z,12
2017-01-28T07:43:19.662Z,12
2017-01-28T07:44:27.754Z,12
2017-01-28T07:45:35.848Z,12
2017-01-28T07:46:43.941Z,12
2017-01-28T07:47:52.038Z,16
2017-01-28T07:49:00.123Z,16
2017-01-28T07:50:08.220Z,16
2017-01-28T07:51:16.316Z,20
2017-01-28T07:52:24.399Z,20
2017-01-28T07:53:32.491Z,20
2017-01-28T07:54:40.579Z,20
2017-01-28T07:55:48.672Z,20
2017-01-28T07:56:56.757Z,20
2017-01-28T07:58:04.852Z,20
2017-01-28T07:59:12.949Z,24
2017-01-28T08:00:21.031Z,24
2017-01-28T08:01:29.119Z,24
2017-01-28T08:02:37.217Z,24
2017-01-28T08:03:45.306Z,20
2017-01-28T08:04:53.394Z,24
2017-01-28T08:06:01.484Z,24
2017-01-28T08:07:09.574Z,24
2017-01-28T08:08:17.666Z,24
2017-01-28T08:09:25.757Z,24
2017-01-28T08:10:33.854Z,24
2017-01-28T08:11:41.946Z,24
2017-01-28T08:12:50.032Z,24
2017-01-28T08:13:58.127Z,24
2017-01-28T08:15:06.218Z,24
2017-01-28T08:16:14.312Z,28
2017-01-28T08:17:22.398Z,28
2017-01-28T08:18:30.495Z,28
2017-01-28T08:19:38.585Z,28
2017-01-28T08:20:46.674Z,28
2017-01-28T08:21:54.768Z,28
2017-01-28T08:23:02.860Z,28
2017-01-28T08:24:10.950Z,28
2017-01-28T08:25:19.049Z,28
2017-01-28T08:26:27.141Z,28
2017-01-28T08:27:35.231Z,28
2017-01-28T08:28:43.325Z,28
2017-01-28T08:29:51.531Z,32
2017-01-28T08:30:59.505Z,28
2017-01-28T08:32:07.593Z,28
2017-01-28T08:33:15.687Z,32
2017-01-28T08:34:23.775Z,28
2017-01-28T08:35:31.861Z,28
2017-01-28T08:36:39.951Z,32
2017-01-28T08:37:48.054Z,28
2017-01-28T08:38:56.151Z,24
2017-01-28T08:40:04.238Z,24
2017-01-28T08:41:12.335Z,28
2017-01-28T08:42:20.426Z,28
2017-01-28T08:43:28.522Z,28
2017-01-28T08:44:36.608Z,28
2017-01-28T08:45:44.707Z,28
2017-01-28T08:46:52.797Z,28
2017-01-28T08:48:00.883Z,24
2017-01-28T08:49:08.976Z,24
2017-01-28T08:50:17.067Z,24
2017-01-28T08:51:25.157Z,24
2017-01-28T08:52:33.243Z,28
2017-01-28T08:53:41.335Z,28
2017-01-28T08:54:49.429Z,32
2017-01-28T08:55:57.519Z,32
2017-01-28T08:57:05.614Z,36
2017-01-28T08:58:13.701Z,32
2017-01-28T08:59:21.788Z,36
2017-01-28T09:00:29.885Z,36
2017-01-28T09:01:37.975Z,36
2017-01-28T09:02:46.068Z,32
2017-01-28T09:03:54.157Z,32
2017-01-28T09:05:02.268Z,32
2017-01-28T09:06:10.339Z,28
2017-01-28T09:07:18.432Z,32
2017-01-28T09:08:26.524Z,32
2017-01-28T09:09:34.616Z,28
2017-01-28T09:10:42.704Z,32
2017-01-28T09:11:50.793Z,36
2017-01-28T09:12:58.888Z,36
2017-01-28T09:14:06.980Z,36
2017-01-28T09:15:15.069Z,36
2017-01-28T09:16:23.154Z,36
2017-01-28T09:17:31.253Z,36
2017-01-28T09:18:39.346Z,32
2017-01-28T09:19:47.430Z,32
2017-01-28T09:20:55.526Z,40
2017-01-28T09:22:03.619Z,40
2017-01-28T09:23:11.703Z,40
2017-01-28T09:24:19.792Z,40
2017-01-28T09:25:27.887Z,40
2017-01-28T09:26:35.976Z,44
2017-01-28T09:27:44.064Z,44
2017-01-28T09:28:52.156Z,44
2017-01-28T09:30:00.268Z,40
2017-01-28T09:31:08.337Z,44
2017-01-28T09:32:16.428Z,44
2017-01-28T09:33:24.549Z,40
2017-01-28T09:34:32.607Z,44
2017-01-28T09:35:40.697Z,48
2017-01-28T09:36:48.794Z,48
2017-01-28T09:37:56.884Z,48
2017-01-28T09:39:04.974Z,48
2017-01-28T09:40:13.064Z,48
2017-01-28T09:41:21.154Z,48
2017-01-28T09:42:29.249Z,48
2017-01-28T09:43:37.336Z,48
2017-01-28T09:44:45.428Z,48
2017-01-28T09:45:53.522Z,44
2017-01-28T09:47:01.612Z,44
2017-01-28T09:48:09.713Z,40
2017-01-28T09:49:17.801Z,40
2017-01-28T09:50:25.911Z,40
2017-01-28T09:51:33.982Z,32
2017-01-28T09:52:42.077Z,28
2017-01-28T09:53:50.169Z,32
2017-01-28T09:54:58.256Z,28
2017-01-28T09:56:06.356Z,32
2017-01-28T09:57:14.453Z,36
2017-01-28T09:58:22.539Z,36
2017-01-28T09:59:30.628Z,40
2017-01-28T10:00:38.723Z,44
2017-01-28T10:01:46.820Z,44
2017-01-28T10:02:54.905Z,44
2017-01-28T10:04:02.999Z,40
2017-01-28T10:05:11.087Z,44
2017-01-28T10:06:19.180Z,52
2017-01-28T10:07:27.266Z,52
2017-01-28T10:08:35.356Z,56
2017-01-28T10:09:43.446Z,56
2017-01-28T10:10:51.535Z,60
2017-01-28T10:11:59.627Z,60
2017-01-28T10:13:07.725Z,64
2017-01-28T10:14:15.814Z,60
2017-01-28T10:15:23.900Z,60
2017-01-28T10:16:31.994Z,60
2017-01-28T10:17:40.085Z,60
2017-01-28T10:18:48.168Z,60
2017-01-28T10:19:56.267Z,64
2017-01-28T10:21:04.359Z,60
2017-01-28T10:22:12.447Z,60
2017-01-28T10:23:20.535Z,60
2017-01-28T10:24:28.633Z,60
2017-01-28T10:25:36.720Z,64
2017-01-28T10:26:44.807Z,64
2017-01-28T10:27:52.900Z,64
2017-01-28T10:29:00.997Z,64
2017-01-28T10:30:09.089Z,60
2017-01-28T10:31:17.176Z,64
2017-01-28T10:32:25.269Z,60
2017-01-28T10:33:33.359Z,60
2017-01-28T10:34:41.448Z,56
2017-01-28T10:35:49.576Z,60
2017-01-28T10:36:57.639Z,56
2017-01-28T10:38:05.734Z,60
2017-01-28T10:39:13.822Z,56
2017-01-28T10:40:21.917Z,52
2017-01-28T10:41:30.011Z,52
2017-01-28T10:42:38.097Z,56
2017-01-28T10:43:46.190Z,52
2017-01-28T10:44:54.279Z,52
2017-01-28T10:46:02.368Z,52
2017-01-28T10:47:10.456Z,52
2017-01-28T10:48:18.551Z,52
2017-01-28T10:49:26.652Z,52
2017-01-28T10:50:34.735Z,56
2017-01-28T10:51:42.827Z,52
2017-01-28T10:52:50.916Z,52
2017-01-28T10:53:59.008Z,52
2017-01-28T10:55:07.107Z,52
2017-01-28T10:56:15.204Z,52
2017-01-28T10:57:23.295Z,48
2017-01-28T10:58:31.392Z,48
2017-01-28T10:59:39.497Z,48
2017-01-28T11:00:47.587Z,48
2017-01-28T11:01:55.672Z,52
2017-01-28T11:03:03.769Z,48
2017-01-28T11:04:11.862Z,48
2017-01-28T11:05:19.952Z,48
2017-01-28T11:06:28.040Z,48
2017-01-28T11:07:36.133Z,48
2017-01-28T11:08:44.229Z,48
2017-01-28T11:09:52.314Z,48
2017-01-28T11:11:00.412Z,44
2017-01-28T11:12:08.505Z,44
2017-01-28T11:13:16.597Z,48
2017-01-28T11:14:24.683Z,48
2017-01-28T11:15:32.776Z,48
2017-01-28T11:16:40.867Z,48
2017-01-28T11:17:48.958Z,44
2017-01-28T11:18:57.045Z,48
2017-01-28T11:20:05.140Z,44
2017-01-28T11:21:13.230Z,48
2017-01-28T11:22:21.317Z,44
2017-01-28T11:23:29.419Z,48
2017-01-28T11:24:37.511Z,44
2017-01-28T11:25:45.600Z,44
2017-01-28T11:26:53.696Z,44
2017-01-28T11:28:01.854Z,44
2017-01-28T11:29:09.880Z,44
2017-01-28T11:30:17.967Z,44
2017-01-28T11:31:26.063Z,40
2017-01-28T11:32:34.149Z,40
2017-01-28T11:33:42.238Z,40
2017-01-28T11:34:50.328Z,44
2017-01-28T11:35:58.426Z,40
2017-01-28T11:37:06.507Z,44
2017-01-28T11:38:14.604Z,40
2017-01-28T11:39:22.699Z,40
2017-01-28T11:40:30.789Z,40
2017-01-28T11:41:38.879Z,40
2017-01-28T11:42:46.967Z,40
2017-01-28T11:43:55.076Z,40
2017-01-28T11:45:03.178Z,36
2017-01-28T11:46:11.248Z,40
2017-01-28T11:47:19.345Z,40
2017-01-28T11:48:27.435Z,36
2017-01-28T11:49:35.526Z,40
2017-01-28T11:50:43.616Z,40
2017-01-28T11:51:51.705Z,36
2017-01-28T11:52:59.797Z,40
2017-01-28T11:54:07.887Z,36
2017-01-28T11:55:15.987Z,36
2017-01-28T11:56:24.088Z,36
2017-01-28T11:57:32.167Z,36
2017-01-28T11:58:40.261Z,36
2017-01-28T11:59:48.352Z,36
2017-01-28T12:00:56.440Z,36
2017-01-28T12:02:04.530Z,36
2017-01-28T12:03:12.622Z,36
2017-01-28T12:04:20.715Z,36
2017-01-28T12:05:28.801Z,36
2017-01-28T12:06:36.904Z,36
2017-01-28T12:07:44.995Z,36
2017-01-28T12:08:53.084Z,36
2017-01-28T12:10:01.173Z,36
2017-01-28T12:11:09.269Z,36
2017-01-28T12:12:17.356Z,36
2017-01-28T12:13:25.449Z,36
2017-01-28T12:14:33.547Z,36
2017-01-28T12:15:41.635Z,40
2017-01-28T12:16:49.729Z,36
2017-01-28T12:17:57.823Z,36
2017-01-28T12:19:05.913Z,36
2017-01-28T12:20:14.000Z,36
2017-01-28T12:21:22.088Z,36
2017-01-28T12:22:30.192Z,36
2017-01-28T12:23:38.283Z,36
2017-01-28T12:24:46.367Z,36
2017-01-28T12:25:54.462Z,36
2017-01-28T12:27:02.551Z,36
2017-01-28T12:28:10.646Z,36
2017-01-28T12:29:18.731Z,32
2017-01-28T12:30:26.826Z,36
2017-01-28T12:31:34.916Z,36
2017-01-28T12:32:43.002Z,32
2017-01-28T12:33:51.097Z,32
2017-01-28T12:34:59.186Z,36
2017-01-28T12:36:07.270Z,32
2017-01-28T12:37:15.361Z,36
2017-01-28T12:38:23.456Z,32
2017-01-28T12:39:31.554Z,36
2017-01-28T12:40:39.646Z,32
2017-01-28T12:41:47.737Z,32
2017-01-28T12:42:55.833Z,32
2017-01-28T12:44:03.922Z,32
2017-01-28T12:45:12.008Z,32
2017-01-28T12:46:20.109Z,32
2017-01-28T12:47:28.199Z,32
2017-01-28T12:48:36.292Z,36
2017-01-28T12:49:44.388Z,32
2017-01-28T12:50:52.483Z,32
2017-01-28T12:52:00.572Z,32
2017-01-28T12:53:08.668Z,32
2017-01-28T12:54:16.765Z,32
2017-01-28T12:55:24.850Z,32
2017-01-28T12:56:32.936Z,36
2017-01-28T12:57:41.031Z,36
2017-01-28T12:58:49.119Z,32
2017-01-28T12:59:57.210Z,32
2017-01-28T13:01:05.305Z,36
2017-01-28T13:02:13.397Z,32
2017-01-28T13:03:21.489Z,32
2017-01-28T13:04:29.579Z,36
2017-01-28T13:05:37.672Z,36
2017-01-28T13:06:45.768Z,36
2017-01-28T13:07:53.859Z,36
2017-01-28T13:09:01.947Z,36
2017-01-28T13:10:10.042Z,36
2017-01-28T13:11:18.129Z,32
2017-01-28T13:12:26.221Z,32
2017-01-28T13:13:34.320Z,36
2017-01-28T13:14:42.412Z,36
2017-01-28T13:15:50.502Z,32
2017-01-28T13:16:58.588Z,36
2017-01-28T13:18:06.683Z,36
2017-01-28T13:19:14.773Z,32
2017-01-28T13:20:22.862Z,32
2017-01-28T13:21:30.955Z,32
2017-01-28T13:22:39.058Z,32
2017-01-28T13:23:47.154Z,32
2017-01-28T13:24:55.240Z,32
2017-01-28T13:26:03.333Z,32
2017-01-28T13:27:11.428Z,28
2017-01-28T13:28:19.513Z,28
2017-01-28T13:29:27.607Z,28
2017-01-28T13:30:35.696Z,32
2017-01-28T13:31:43.796Z,28
2017-01-28T13:32:51.885Z,32
2017-01-28T13:33:59.979Z,32
2017-01-28T13:35:08.068Z,28
2017-01-28T13:36:16.169Z,28
2017-01-28T13:37:24.264Z,28
2017-01-28T13:38:32.358Z,28
2017-01-28T13:39:40.527Z,28
2017-01-28T13:40:48.543Z,28
2017-01-28T13:41:56.636Z,24
2017-01-28T13:43:04.726Z,24
2017-01-28T13:44:12.813Z,24
2017-01-28T13:45:20.909Z,28
2017-01-28T13:46:29.551Z,24
2017-01-28T13:47:37.114Z,24
2017-01-28T13:48:45.236Z,24
2017-01-28T13:49:53.285Z,24
2017-01-28T13:51:01.378Z,24
2017-01-28T13:52:09.463Z,24
2017-01-28T13:53:17.554Z,28
2017-01-28T13:54:25.648Z,28
2017-01-28T13:55:33.740Z,24
2017-01-28T13:56:41.834Z,24
2017-01-28T13:57:50.568Z,28
2017-01-28T13:58:58.006Z,28
2017-01-28T14:00:06.116Z,24
2017-01-28T14:01:14.205Z,24
2017-01-28T14:02:22.292Z,28
2017-01-28T14:03:30.383Z,24
2017-01-28T14:04:38.478Z,24
2017-01-28T14:05:46.573Z,28
2017-01-28T14:06:54.662Z,28
2017-01-28T14:08:02.750Z,24
2017-01-28T14:09:10.843Z,28
2017-01-28T14:10:18.936Z,28
2017-01-28T14:11:27.023Z,28
2017-01-28T14:12:35.123Z,28
2017-01-28T14:13:43.822Z,32
2017-01-28T14:14:51.317Z,32
2017-01-28T14:15:59.406Z,36
2017-01-28T14:17:07.501Z,40
2017-01-28T14:18:15.595Z,40
2017-01-28T14:19:23.685Z,44
2017-01-28T14:20:31.776Z,40
2017-01-28T14:21:39.877Z,44
2017-01-28T14:22:47.957Z,40
2017-01-28T14:23:56.208Z,40
2017-01-28T14:25:04.290Z,40
2017-01-28T14:26:12.524Z,44
2017-01-28T14:27:20.324Z,40
2017-01-28T14:28:28.420Z,40
2017-01-28T14:29:36.740Z,40
2017-01-28T14:30:45.145Z,44
2017-01-28T14:31:53.157Z,44
2017-01-28T14:33:00.785Z,44
2017-01-28T14:34:08.882Z,48
2017-01-28T14:35:16.969Z,48
2017-01-28T14:36:25.063Z,48
2017-01-28T14:37:33.158Z,48
2017-01-28T14:38:41.757Z,52
2017-01-28T14:39:49.336Z,48
2017-01-28T14:40:57.436Z,48
2017-01-28T14:42:05.527Z,48
2017-01-28T14:43:13.628Z,44
2017-01-28T14:44:21.712Z,44
2017-01-28T14:45:29.801Z,40
2017-01-28T14:46:37.893Z,44
2017-01-28T14:47:45.987Z,40
2017-01-28T14:48:54.081Z,36
2017-01-28T14:50:02.170Z,40
2017-01-28T14:51:10.262Z,36
2017-01-28T14:52:18.360Z,36
2017-01-28T14:53:26.452Z,32
2017-01-28T14:54:34.545Z,32
2017-01-28T14:55:42.631Z,32
2017-01-28T14:56:50.726Z,28
2017-01-28T14:57:58.823Z,28
2017-01-28T14:59:06.915Z,24
2017-01-28T15:00:15.007Z,16
2017-01-28T15:01:23.097Z,12
2017-01-28T15:02:31.183Z,16
2017-01-28T15:03:39.273Z,16
2017-01-28T15:04:47.386Z,12
2017-01-28T15:05:55.465Z,8
2017-01-28T15:07:03.561Z,12
2017-01-28T15:08:11.648Z,8
2017-01-28T15:09:19.747Z,8
2017-01-28T15:10:27.835Z,8
2017-01-28T15:11:35.927Z,8
2017-01-28T15:12:44.022Z,8
2017-01-28T15:13:52.113Z,8
2017-01-28T15:15:00.202Z,8
2017-01-28T15:16:08.297Z,8
2017-01-28T15:17:16.394Z,8
2017-01-28T15:18:24.485Z,8
2017-01-28T15:19:32.590Z,8
2017-01-28T15:20:40.672Z,4
2017-01-28T15:21:48.759Z,4
2017-01-28T15:22:56.850Z,8
2017-01-28T15:24:04.946Z,8
2017-01-28T15:25:13.037Z,8
2017-01-28T15:26:21.126Z,8
2017-01-28T15:27:29.220Z,4
2017-01-28T15:28:37.311Z,4
2017-01-28T15:29:45.405Z,4
2017-01-28T15:30:53.494Z,4
2017-01-28T15:32:01.588Z,4
2017-01-28T15:33:09.686Z,4
2017-01-28T15:34:17.852Z,4
2017-01-28T15:35:25.876Z,4
2017-01-28T15:36:33.968Z,4
2017-01-28T15:37:42.056Z,4
2017-01-28T15:38:50.150Z,4
2017-01-28T15:39:58.254Z,4
2017-01-28T15:41:06.337Z,4
2017-01-28T15:42:14.434Z,4
2017-01-28T15:43:22.527Z,4
2017-01-28T15:44:30.616Z,4
2017-01-28T15:45:38.706Z,4
2017-01-28T15:46:46.793Z,4
2017-01-28T15:47:54.885Z,4
2017-01-28T15:49:02.977Z,4
2017-01-28T15:50:11.077Z,4
2017-01-28T15:51:19.245Z,4
2017-01-28T15:52:27.267Z,4
2017-01-28T15:53:35.356Z,4
2017-01-28T15:54:43.443Z,4
2017-01-28T15:55:51.565Z,4
2017-01-28T15:56:59.635Z,4
2017-01-28T15:58:07.717Z,4
2017-01-28T15:59:15.813Z,0
2017-01-28T16:00:23.903Z,0
2017-01-28T16:01:31.990Z,0
2017-01-28T16:02:40.082Z,0
2017-01-28T16:03:48.178Z,0
2017-01-28T16:04:56.269Z,0
2017-01-28T16:06:04.354Z,4
2017-01-28T16:07:12.448Z,4
2017-01-28T16:08:20.539Z,4
2017-01-28T16:09:28.637Z,4
2017-01-28T16:10:36.727Z,0
2017-01-28T16:11:44.823Z,0
2017-01-28T16:12:52.908Z,0
2017-01-28T16:14:01.000Z,0
2017-01-28T16:15:09.094Z,0
2017-01-28T16:16:17.182Z,0
2017-01-28T16:17:25.275Z,0
2017-01-28T16:18:33.366Z,0
2017-01-28T16:19:41.461Z,0
2017-01-28T16:20:49.554Z,0
2017-01-28T16:21:57.641Z,0
2017-01-28T16:23:05.737Z,0
2017-01-28T16:24:13.831Z,0
2017-01-28T16:25:21.917Z,0
2017-01-28T16:26:30.011Z,0
2017-01-28T16:27:38.103Z,0
2017-01-28T16:28:46.195Z,0
2017-01-28T16:29:54.283Z,0